createdAt,value
2022-10-29T00:01:58.511Z,101503.66
2022-10-29T00:04:25.006Z,101493.38
2022-10-29T00:06:51.434Z,101498.72
2022-10-29T00:09:17.864Z,101500.63
2022-10-29T00:11:44.298Z,101497.25
2022-10-29T00:14:10.731Z,101501.97
2022-10-29T00:16:39.341Z,101488.94
2022-10-29T00:19:06.315Z,101492.19
2022-10-29T00:21:34.455Z,101493.72
2022-10-29T00:24:00.940Z,101493.09
2022-10-29T00:26:29.357Z,101505.53
2022-10-29T00:28:56.823Z,101502.84
2022-10-29T00:31:26.928Z,101504.97
2022-10-29T00:33:55.136Z,101511.00
2022-10-29T00:36:24.132Z,101508.22
2022-10-29T00:38:51.069Z,101506.53
2022-10-29T00:41:22.011Z,101499.28
2022-10-29T00:43:51.829Z,101492.03
2022-10-29T00:46:27.591Z,101499.50
2022-10-29T00:48:56.341Z,101500.59
2022-10-29T00:51:23.289Z,101505.91
2022-10-29T00:53:59.350Z,101507.00
2022-10-29T00:56:28.151Z,101513.00
2022-10-29T00:58:54.820Z,101512.38
2022-10-29T01:01:21.437Z,101504.06
2022-10-29T01:03:48.787Z,101521.81
2022-10-29T01:06:15.445Z,101527.84
2022-10-29T01:11:26.586Z,101527.66
2022-10-29T01:14:29.910Z,101535.38
2022-10-29T01:17:19.372Z,101539.22
2022-10-29T01:20:07.782Z,101538.38
2022-10-29T01:22:58.067Z,101527.88
2022-10-29T01:25:42.449Z,101528.97
2022-10-29T01:31:17.800Z,101505.47
2022-10-29T01:33:52.826Z,101504.13
2022-10-29T01:36:24.849Z,101502.59
2022-10-29T04:29:35.622Z,101422.47
2022-10-29T04:32:02.036Z,101425.88
2022-10-29T04:34:28.489Z,101439.88
2022-10-29T04:36:54.903Z,101447.78
2022-10-29T04:39:23.379Z,101446.69
2022-10-29T04:41:50.026Z,101444.31
2022-10-29T04:44:16.980Z,101431.94
2022-10-29T04:46:43.609Z,101435.97
2022-10-29T04:49:10.129Z,101435.50
2022-10-29T04:51:36.590Z,101432.47
2022-10-29T04:54:03.098Z,101429.50
2022-10-29T04:56:30.896Z,101420.09
2022-10-29T04:58:57.348Z,101417.94
2022-10-29T05:01:23.927Z,101399.38
2022-10-29T05:03:52.191Z,101401.69
2022-10-29T05:06:20.614Z,101396.16
2022-10-29T05:08:47.219Z,101392.06
2022-10-29T05:11:13.611Z,101385.25
2022-10-29T05:13:40.011Z,101396.34
2022-10-29T05:16:06.877Z,101396.09
2022-10-29T05:18:33.288Z,101394.41
2022-10-29T05:20:59.638Z,101388.88
2022-10-29T05:23:26.044Z,101384.19
2022-10-29T05:25:55.179Z,101383.94
2022-10-29T05:28:22.918Z,101384.31
2022-10-29T05:30:51.168Z,101384.09
2022-10-29T05:33:22.851Z,101377.03
2022-10-29T05:35:49.706Z,101378.09
2022-10-29T05:38:16.745Z,101366.53
2022-10-29T05:40:45.084Z,101370.75
2022-10-29T05:43:13.311Z,101351.72
2022-10-29T05:45:39.839Z,101348.91
2022-10-29T05:48:06.919Z,101353.72
2022-10-29T05:50:34.235Z,101352.81
2022-10-29T05:53:03.249Z,101350.19
2022-10-29T05:55:32.998Z,101355.50
2022-10-29T05:58:01.521Z,101355.88
2022-10-29T06:00:30.257Z,101365.44
2022-10-29T06:02:57.454Z,101369.44
2022-10-29T06:05:24.268Z,101364.50
2022-10-29T06:07:56.100Z,101366.59
2022-10-29T06:10:24.403Z,101366.34
2022-10-29T06:12:51.217Z,101368.03
2022-10-29T06:15:18.166Z,101380.84
2022-10-29T06:17:45.629Z,101398.94
2022-10-29T06:20:14.165Z,101398.94
2022-10-29T06:22:40.611Z,101400.91
2022-10-29T06:25:07.724Z,101393.38
2022-10-29T06:27:34.298Z,101382.94
2022-10-29T06:30:00.691Z,101376.06
2022-10-29T06:32:27.054Z,101387.66
2022-10-29T06:34:53.439Z,101394.91
2022-10-29T06:37:19.830Z,101379.47
2022-10-29T06:39:46.230Z,101382.38
2022-10-29T06:42:12.633Z,101377.47
2022-10-29T06:44:39.044Z,101373.13
2022-10-29T06:47:05.810Z,101378.69
2022-10-29T06:49:32.271Z,101382.31
2022-10-29T06:51:58.633Z,101383.59
2022-10-29T06:54:25.004Z,101379.97
2022-10-29T06:56:51.382Z,101373.56
2022-10-29T06:59:17.772Z,101366.94
2022-10-29T07:01:44.244Z,101369.72
2022-10-29T07:04:10.642Z,101370.34
2022-10-29T07:06:37.042Z,101369.50
2022-10-29T07:09:03.543Z,101360.91
2022-10-29T07:11:29.900Z,101356.22
2022-10-29T07:13:56.294Z,101359.84
2022-10-29T07:16:22.726Z,101357.44
2022-10-29T07:18:49.112Z,101360.00
2022-10-29T07:21:15.529Z,101364.22
2022-10-29T07:23:42.046Z,101375.72
2022-10-29T07:26:08.542Z,101384.66
2022-10-29T07:28:35.185Z,101385.25
2022-10-29T07:31:02.206Z,101389.75
2022-10-29T07:33:32.246Z,101394.44
2022-10-29T07:35:59.278Z,101400.84
2022-10-29T07:38:26.353Z,101404.22
2022-10-29T07:40:53.570Z,101408.72
2022-10-29T07:43:21.189Z,101411.84
2022-10-29T07:45:52.217Z,101401.34
2022-10-29T07:48:20.264Z,101409.44
2022-10-29T07:50:47.397Z,101404.50
2022-10-29T07:53:14.245Z,101410.47
2022-10-29T07:55:41.121Z,101406.94
2022-10-29T07:58:11.519Z,101409.88
2022-10-29T08:00:40.076Z,101408.91
2022-10-29T08:03:07.447Z,101415.22
2022-10-29T08:05:34.399Z,101407.03
2022-10-29T08:08:01.140Z,101401.97
2022-10-29T08:10:29.153Z,101403.56
2022-10-29T08:12:58.414Z,101403.66
2022-10-29T08:15:27.081Z,101397.63
2022-10-29T08:17:54.139Z,101399.94
2022-10-29T08:20:22.701Z,101405.66
2022-10-29T08:22:49.257Z,101388.47
2022-10-29T08:25:16.304Z,101390.31
2022-10-29T08:27:43.415Z,101392.59
2022-10-29T08:30:12.932Z,101381.00
2022-10-29T08:32:46.800Z,101362.50
2022-10-29T08:35:14.168Z,101373.97
2022-10-29T08:37:44.247Z,101381.84
2022-10-29T08:40:21.711Z,101378.06
2022-10-29T08:42:56.497Z,101380.38
2022-10-29T08:45:37.475Z,101384.00
2022-10-29T08:48:21.771Z,101375.78
2022-10-29T08:51:06.102Z,101364.66
2022-10-29T08:53:58.723Z,101376.00
2022-10-29T08:56:36.910Z,101367.16
2022-10-29T08:59:18.451Z,101364.16
2022-10-29T09:01:45.371Z,101365.00
2022-10-29T09:04:36.657Z,101369.56
2022-10-29T09:07:08.815Z,101360.72
2022-10-29T09:09:49.157Z,101359.16
2022-10-29T09:12:37.343Z,101362.06
2022-10-29T09:15:25.891Z,101367.75
2022-10-29T09:18:14.914Z,101356.13
2022-10-29T09:21:01.765Z,101353.19
2022-10-29T09:23:58.750Z,101367.09
2022-10-29T09:26:38.663Z,101368.06
2022-10-29T09:29:32.967Z,101367.91
2022-10-29T09:32:48.654Z,101366.44
2022-10-29T09:35:17.914Z,101364.63
2022-10-29T09:37:49.348Z,101371.63
2022-10-29T09:40:27.477Z,101371.13
2022-10-29T09:42:54.378Z,101365.81
2022-10-29T09:45:27.709Z,101368.59
2022-10-29T09:48:04.887Z,101359.75
2022-10-29T09:50:45.417Z,101364.69
2022-10-29T09:53:12.280Z,101367.50
2022-10-29T09:55:43.755Z,101362.53
2022-10-29T09:58:20.303Z,101363.63
2022-10-29T10:00:46.778Z,101365.31
2022-10-29T10:03:18.531Z,101342.75
2022-10-29T10:06:06.837Z,101349.81
2022-10-29T10:08:34.199Z,101352.66
2022-10-29T10:11:02.780Z,101346.34
2022-10-29T10:13:32.839Z,101344.75
2022-10-29T10:16:01.716Z,101344.25
2022-10-29T10:18:41.106Z,101337.94
2022-10-29T10:21:10.381Z,101341.06
2022-10-29T10:23:42.188Z,101332.28
2022-10-29T10:26:27.374Z,101333.97
2022-10-29T10:29:09.427Z,101336.59
2022-10-29T10:31:35.870Z,101338.88
2022-10-29T10:34:21.964Z,101332.72
2022-10-29T10:37:04.027Z,101331.94
2022-10-29T10:39:30.465Z,101321.97
2022-10-29T10:42:01.637Z,101318.19
2022-10-29T10:44:28.852Z,101317.91
2022-10-29T10:46:58.646Z,101315.22
2022-10-29T10:49:36.551Z,101318.06
2022-10-29T10:52:25.465Z,101315.38
2022-10-29T10:55:26.480Z,101320.72
2022-10-29T10:58:02.744Z,101316.34
2022-10-29T11:00:36.106Z,101309.97
2022-10-29T11:03:13.571Z,101299.16
2022-10-29T11:05:46.478Z,101300.59
2022-10-29T11:08:20.159Z,101307.94
2022-10-29T11:10:57.295Z,101303.53
2022-10-29T11:13:28.961Z,101304.44
2022-10-29T11:16:04.855Z,101300.88
2022-10-29T11:18:34.949Z,101300.97
2022-10-29T11:21:07.211Z,101301.59
2022-10-29T11:23:48.215Z,101302.25
2022-10-29T11:26:40.566Z,101290.56
2022-10-29T11:29:36.117Z,101291.22
2022-10-29T11:32:12.337Z,101293.56
2022-10-29T11:34:48.190Z,101288.59
2022-10-29T11:37:25.563Z,101284.50
2022-10-29T11:40:13.860Z,101283.22
2022-10-29T11:42:41.006Z,101287.50
2022-10-29T11:45:17.372Z,101278.56
2022-10-29T11:47:52.323Z,101278.03
2022-10-29T11:51:01.071Z,101269.69
2022-10-29T11:53:33.180Z,101262.22
2022-10-29T11:56:27.965Z,101263.38
2022-10-29T11:59:23.375Z,101262.31
2022-10-29T12:01:59.017Z,101260.13
2022-10-29T12:04:48.407Z,101264.63
2022-10-29T12:07:43.311Z,101256.06
2022-10-29T12:10:47.301Z,101254.72
2022-10-29T12:13:13.609Z,101250.00
2022-10-29T12:15:43.886Z,101241.44
2022-10-29T12:18:32.050Z,101250.22
2022-10-29T12:21:17.103Z,101246.66
2022-10-29T12:24:21.454Z,101259.00
2022-10-29T12:27:00.165Z,101251.19
2022-10-29T12:29:52.699Z,101254.56
2022-10-29T12:32:37.769Z,101249.22
2022-10-29T12:35:33.812Z,101254.25
2022-10-29T12:38:40.969Z,101253.34
2022-10-29T12:41:23.556Z,101261.47
2022-10-29T12:43:51.873Z,101245.56
2022-10-29T12:46:43.013Z,101234.38
2022-10-29T12:49:12.295Z,101227.13
2022-10-29T12:51:49.158Z,101231.03
2022-10-29T12:54:26.829Z,101228.25
2022-10-29T12:56:53.763Z,101220.41
2022-10-29T12:59:35.379Z,101221.00
2022-10-29T13:02:38.927Z,101212.00
2022-10-29T13:05:11.131Z,101209.47
2022-10-29T13:07:58.890Z,101202.47
2022-10-29T13:10:27.013Z,101206.38
2022-10-29T13:12:59.513Z,101200.22
2022-10-29T13:15:34.156Z,101213.66
2022-10-29T13:18:08.801Z,101200.22
2022-10-29T13:21:01.577Z,101210.56
2022-10-29T13:23:29.079Z,101203.59
2022-10-29T13:25:59.423Z,101197.47
2022-10-29T13:28:25.750Z,101195.22
2022-10-29T13:31:12.386Z,101201.13
2022-10-29T13:33:38.748Z,101191.34
2022-10-29T13:36:29.014Z,101187.16
2022-10-29T13:39:06.505Z,101178.50
2022-10-29T13:41:42.549Z,101178.50
2022-10-29T13:44:09.666Z,101169.28
2022-10-29T13:47:00.990Z,101167.31
2022-10-29T13:49:33.930Z,101167.31
2022-10-29T13:52:21.185Z,101156.13
2022-10-29T13:54:50.351Z,101158.63
2022-10-29T13:57:25.478Z,101161.72
2022-10-29T13:59:59.389Z,101154.19
2022-10-29T14:02:39.293Z,101152.47
2022-10-29T14:05:14.755Z,101159.47
2022-10-29T14:07:52.990Z,101153.88
2022-10-29T14:10:32.676Z,101150.53
2022-10-29T14:13:08.018Z,101156.66
2022-10-29T14:15:34.700Z,101153.84
2022-10-29T14:18:24.519Z,101158.00
2022-10-29T14:20:55.839Z,101167.78
2022-10-29T14:23:22.330Z,101172.53
2022-10-29T14:25:53.684Z,101163.00
2022-10-29T14:28:30.035Z,101167.16
2022-10-29T14:31:07.072Z,101170.19
2022-10-29T14:33:38.420Z,101158.13
2022-10-29T14:36:09.325Z,101164.25
2022-10-29T14:38:43.325Z,101158.63
2022-10-29T14:41:11.215Z,101160.00
2022-10-29T14:43:39.005Z,101154.94
2022-10-29T14:46:22.645Z,101154.66
2022-10-29T14:48:56.230Z,101155.19
2022-10-29T14:51:22.995Z,101157.44
2022-10-29T14:53:57.366Z,101160.47
2022-10-29T14:56:38.339Z,101161.88
2022-10-29T14:59:15.245Z,101155.69
2022-10-29T15:01:47.052Z,101146.16
2022-10-29T15:04:23.854Z,101162.38
2022-10-29T15:06:50.640Z,101158.41
2022-10-29T15:09:22.262Z,101156.16
2022-10-29T15:12:03.673Z,101155.56
2022-10-29T15:14:50.294Z,101153.31
2022-10-29T15:17:29.103Z,101151.06
2022-10-29T15:20:05.438Z,101145.19
2022-10-29T15:22:33.463Z,101150.19
2022-10-29T15:25:02.966Z,101148.75
2022-10-29T15:27:29.841Z,101153.78
2022-10-29T15:29:56.889Z,101149.31
2022-10-29T15:32:25.187Z,101149.56
2022-10-29T15:34:56.517Z,101144.25
2022-10-29T15:37:26.046Z,101142.56
2022-10-29T15:39:56.500Z,101147.00
2022-10-29T15:42:26.285Z,101151.16
2022-10-29T15:45:07.751Z,101144.69
2022-10-29T15:47:36.199Z,101145.19
2022-10-29T15:50:04.204Z,101144.03
2022-10-29T15:52:33.273Z,101144.56
2022-10-29T15:55:01.390Z,101138.09
2022-10-29T15:57:27.898Z,101151.75
2022-10-29T15:59:57.294Z,101147.53
2022-10-29T16:02:25.467Z,101143.31
2022-10-29T16:04:51.957Z,101147.75
2022-10-29T16:07:18.405Z,101138.19
2022-10-29T16:09:50.365Z,101137.63
2022-10-29T16:12:16.750Z,101140.97
2022-10-29T16:14:43.154Z,101142.06
2022-10-29T16:17:18.178Z,101135.31
2022-10-29T16:19:44.746Z,101139.50
2022-10-29T16:22:16.855Z,101139.75
2022-10-29T16:24:43.312Z,101126.84
2022-10-29T16:27:14.849Z,101127.94
2022-10-29T16:29:41.758Z,101131.84
2022-10-29T16:32:20.319Z,101130.13
2022-10-29T16:34:47.237Z,101135.41
2022-10-29T16:37:15.914Z,101128.16
2022-10-29T16:39:43.034Z,101128.66
2022-10-29T16:42:31.619Z,101135.63
2022-10-29T16:44:58.114Z,101128.34
2022-10-29T16:47:24.688Z,101128.34
2022-10-29T16:49:51.510Z,101126.69
2022-10-29T16:52:21.080Z,101127.53
2022-10-29T16:54:49.615Z,101124.41
2022-10-29T16:57:16.059Z,101121.63
2022-10-29T16:59:42.489Z,101119.09
2022-10-29T17:02:11.048Z,101116.53
2022-10-29T17:04:37.643Z,101117.06
2022-10-29T17:07:04.198Z,101114.25
2022-10-29T17:09:30.792Z,101123.91
2022-10-29T17:12:00.233Z,101129.63
2022-10-29T17:14:26.631Z,101126.19
2022-10-29T17:16:53.210Z,101127.50
2022-10-29T17:19:19.600Z,101118.22
2022-10-29T17:21:46.007Z,101128.22
2022-10-29T17:24:12.444Z,101118.09
2022-10-29T17:26:38.826Z,101118.03
2022-10-29T17:29:05.375Z,101114.91
2022-10-29T17:31:31.759Z,101114.56
2022-10-29T17:33:58.219Z,101110.03
2022-10-29T17:36:24.617Z,101109.69
2022-10-29T17:38:50.994Z,101116.91
2022-10-29T17:41:17.475Z,101114.28
2022-10-29T17:43:43.946Z,101110.31
2022-10-29T17:46:10.414Z,101117.53
2022-10-29T17:48:36.901Z,101113.78
2022-10-29T17:51:03.412Z,101107.03
2022-10-29T17:53:30.944Z,101113.13
2022-10-29T17:55:59.301Z,101107.75
2022-10-29T17:58:26.287Z,101115.72
2022-10-29T18:00:53.236Z,101128.19
2022-10-29T18:03:19.705Z,101119.50
2022-10-29T18:05:47.034Z,101114.72
2022-10-29T18:08:13.426Z,101120.19
2022-10-29T18:10:39.868Z,101132.94
2022-10-29T18:13:06.342Z,101128.97
2022-10-29T18:15:32.728Z,101140.59
2022-10-29T18:18:00.591Z,101128.03
2022-10-29T18:20:26.992Z,101130.47
2022-10-29T18:22:55.900Z,101123.72
2022-10-29T18:25:22.645Z,101131.47
2022-10-29T18:27:49.162Z,101119.75
2022-10-29T18:30:16.078Z,101130.28
2022-10-29T18:32:42.487Z,101121.84
2022-10-29T18:35:09.476Z,101128.28
2022-10-29T18:37:35.886Z,101126.81
2022-10-29T18:40:02.363Z,101135.66
2022-10-29T18:42:29.884Z,101147.03
2022-10-29T18:44:56.332Z,101136.41
2022-10-29T18:47:22.783Z,101158.94
2022-10-29T18:49:49.154Z,101142.72
2022-10-29T18:52:15.607Z,101152.16
2022-10-29T18:54:42.069Z,101156.03
2022-10-29T18:57:08.474Z,101157.97
2022-10-29T18:59:34.899Z,101156.03
2022-10-29T19:02:01.509Z,101150.47
2022-10-29T19:04:28.218Z,101146.59
2022-10-29T19:06:54.923Z,101139.09
2022-10-29T19:09:21.381Z,101140.19
2022-10-29T19:11:55.283Z,101135.47
2022-10-29T19:14:24.832Z,101137.66
2022-10-29T19:16:51.232Z,101133.78
2022-10-29T19:19:21.199Z,101129.91
2022-10-29T19:21:50.419Z,101123.50
2022-10-29T19:24:17.245Z,101129.66
2022-10-29T19:26:43.857Z,101123.22
2022-10-29T19:29:11.277Z,101119.38
2022-10-29T19:31:37.764Z,101126.88
2022-10-29T19:34:07.049Z,101126.88
2022-10-29T19:36:35.106Z,101114.88
2022-10-29T19:39:01.703Z,101123.50
2022-10-29T19:41:29.318Z,101126.53
2022-10-29T19:43:59.277Z,101129.91
2022-10-29T19:46:25.745Z,101132.44
2022-10-29T19:48:54.879Z,101133.88
2022-10-29T19:51:22.494Z,101129.41
2022-10-29T19:53:51.349Z,101113.56
2022-10-29T19:56:18.615Z,101121.66
2022-10-29T19:58:45.638Z,101115.63
2022-10-29T20:01:17.629Z,101109.03
2022-10-29T20:03:45.045Z,101113.84
2022-10-29T20:06:12.217Z,101114.78
2022-10-29T20:08:39.119Z,101108.69
2022-10-29T20:11:06.379Z,101117.66
2022-10-29T20:13:32.840Z,101110.38
2022-10-29T20:15:59.350Z,101117.91
2022-10-29T20:18:25.781Z,101113.44
2022-10-29T20:20:56.636Z,101120.34
2022-10-29T20:23:25.402Z,101111.56
2022-10-29T20:25:51.843Z,101110.38
2022-10-29T20:28:18.260Z,101105.31
2022-10-29T20:30:44.647Z,101107.16
2022-10-29T20:33:11.152Z,101115.16
2022-10-29T20:35:37.605Z,101106.47
2022-10-29T20:38:04.314Z,101108.06
2022-10-29T20:40:30.804Z,101110.00
2022-10-29T20:42:57.326Z,101113.63
2022-10-29T20:45:23.792Z,101113.13
2022-10-29T20:47:50.207Z,101111.03
2022-10-29T20:50:16.668Z,101108.34
2022-10-29T20:52:48.074Z,101105.63
2022-10-29T20:55:15.258Z,101110.72
2022-10-29T20:57:41.656Z,101110.22
2022-10-29T21:00:08.700Z,101109.72
2022-10-29T21:02:35.351Z,101117.81
2022-10-29T21:05:01.837Z,101110.91
2022-10-29T21:07:28.220Z,101118.16
2022-10-29T21:09:54.609Z,101114.25
2022-10-29T21:12:21.028Z,101113.19
2022-10-29T21:14:47.499Z,101115.72
2022-10-29T21:17:14.011Z,101111.59
2022-10-29T21:19:40.485Z,101114.94
2022-10-29T21:22:06.923Z,101122.81
2022-10-29T21:24:33.409Z,101116.75
2022-10-29T21:26:59.849Z,101119.00
2022-10-29T21:29:26.240Z,101117.91
2022-10-29T21:31:52.619Z,101117.66
2022-10-29T21:34:19.060Z,101123.22
2022-10-29T21:36:45.936Z,101121.28
2022-10-29T21:39:12.404Z,101119.59
2022-10-29T21:41:38.834Z,101116.81
2022-10-29T21:44:05.245Z,101118.50
2022-10-29T21:46:31.641Z,101122.75
2022-10-29T21:48:58.068Z,101128.03
2022-10-29T21:51:24.514Z,101122.22
2022-10-29T21:53:50.945Z,101120.28
2022-10-29T21:56:17.499Z,101118.31
2022-10-29T21:58:44.006Z,101120.03
2022-10-29T22:01:15.372Z,101112.50
2022-10-29T22:03:43.706Z,101119.78
2022-10-29T22:06:13.316Z,101118.41
2022-10-29T22:08:40.117Z,101119.78
2022-10-29T22:11:07.253Z,101119.50
2022-10-29T22:13:34.825Z,101123.13
2022-10-29T22:16:02.521Z,101118.66
2022-10-29T22:18:29.755Z,101115.28
2022-10-29T22:21:03.237Z,101109.50
2022-10-29T22:23:29.674Z,101105.84
2022-10-29T22:25:56.119Z,101098.59
2022-10-29T22:28:22.549Z,101102.22
2022-10-29T22:30:48.980Z,101093.03
2022-10-29T22:33:15.703Z,101092.44
2022-10-29T22:35:42.143Z,101105.53
2022-10-29T22:38:08.531Z,101102.97
2022-10-29T22:40:40.794Z,101099.09
2022-10-29T22:43:07.214Z,101102.13
2022-10-29T22:45:33.602Z,101100.47
2022-10-29T22:48:00.045Z,101106.84
2022-10-29T22:50:26.480Z,101103.50
2022-10-29T22:52:52.899Z,101103.16
2022-10-29T22:55:19.356Z,101109.81
2022-10-29T22:57:45.742Z,101115.88
2022-10-29T23:00:12.721Z,101121.69
2022-10-29T23:02:39.173Z,101116.63
2022-10-29T23:05:06.032Z,101122.19
2022-10-29T23:10:03.905Z,101139.41
2022-10-29T23:12:30.344Z,101134.94
2022-10-29T23:14:56.712Z,101130.97
2022-10-29T23:17:23.086Z,101117.56
2022-10-29T23:19:49.522Z,101124.19
2022-10-29T23:24:47.297Z,101118.91
2022-10-29T23:27:13.732Z,101112.72
2022-10-29T23:29:40.169Z,101114.09
2022-10-29T23:32:06.560Z,101116.03
2022-10-29T23:34:32.951Z,101117.97
2022-10-29T23:37:00.462Z,101120.16
2022-10-29T23:39:28.603Z,101115.69
2022-10-29T23:41:55.015Z,101118.47
2022-10-29T23:44:21.391Z,101115.69
2022-10-29T23:46:47.770Z,101116.19
2022-10-29T23:49:14.147Z,101119.47
2022-10-29T23:51:40.532Z,101108.84
2022-10-29T23:54:06.992Z,101107.66
2022-10-29T23:56:33.404Z,101101.75
2022-10-29T23:58:59.842Z,101110.84
